sensor_id;sensor_type;location;lat;lon;timestamp;P1;durP1;ratioP1;P2;durP2;ratioP2
25155;SDS011;21913;52.456;13.634;2023-03-19T00:00:26;1.90;;;1.10;;
25155;SDS011;21913;52.456;13.634;2023-03-19T00:05:28;1.65;;;1.00;;
25155;SDS011;21913;52.456;13.634;2023-03-19T00:10:29;1.70;;;1.25;;
25155;SDS011;21913;52.456;13.634;2023-03-19T00:15:31;1.58;;;1.10;;
25155;SDS011;21913;52.456;13.634;2023-03-19T00:20:33;1.60;;;1.10;;
25155;SDS011;21913;52.456;13.634;2023-03-19T00:25:34;2.70;;;1.40;;
25155;SDS011;21913;52.456;13.634;2023-03-19T00:30:36;3.03;;;1.30;;
25155;SDS011;21913;52.456;13.634;2023-03-19T00:35:38;2.28;;;1.17;;
25155;SDS011;21913;52.456;13.634;2023-03-19T00:40:40;2.10;;;1.27;;
25155;SDS011;21913;52.456;13.634;2023-03-19T00:45:41;1.77;;;1.00;;
25155;SDS011;21913;52.456;13.634;2023-03-19T00:50:43;2.72;;;1.30;;
25155;SDS011;21913;52.456;13.634;2023-03-19T00:55:44;1.90;;;1.20;;
25155;SDS011;21913;52.456;13.634;2023-03-19T01:00:46;1.48;;;1.13;;
25155;SDS011;21913;52.456;13.634;2023-03-19T01:05:48;2.08;;;1.23;;
25155;SDS011;21913;52.456;13.634;2023-03-19T01:10:49;1.73;;;1.23;;
25155;SDS011;21913;52.456;13.634;2023-03-19T01:15:50;1.70;;;1.20;;
25155;SDS011;21913;52.456;13.634;2023-03-19T01:20:52;2.20;;;1.20;;
25155;SDS011;21913;52.456;13.634;2023-03-19T01:25:54;2.05;;;1.30;;
25155;SDS011;21913;52.456;13.634;2023-03-19T01:30:57;1.95;;;1.10;;
25155;SDS011;21913;52.456;13.634;2023-03-19T01:36:23;2.50;;;1.27;;
25155;SDS011;21913;52.456;13.634;2023-03-19T01:41:34;2.50;;;1.15;;
25155;SDS011;21913;52.456;13.634;2023-03-19T01:46:54;2.85;;;1.20;;
25155;SDS011;21913;52.456;13.634;2023-03-19T01:52:15;2.47;;;1.50;;
25155;SDS011;21913;52.456;13.634;2023-03-19T01:57:46;2.00;;;1.20;;
25155;SDS011;21913;52.456;13.634;2023-03-19T02:03:06;3.30;;;1.40;;
25155;SDS011;21913;52.456;13.634;2023-03-19T02:08:23;1.90;;;1.20;;
25155;SDS011;21913;52.456;13.634;2023-03-19T02:13:26;2.22;;;1.30;;
25155;SDS011;21913;52.456;13.634;2023-03-19T02:18:27;1.42;;;1.00;;
25155;SDS011;21913;52.456;13.634;2023-03-19T02:23:40;1.80;;;1.20;;
25155;SDS011;21913;52.456;13.634;2023-03-19T02:28:53;1.48;;;1.10;;
25155;SDS011;21913;52.456;13.634;2023-03-19T02:34:04;1.90;;;1.17;;
25155;SDS011;21913;52.456;13.634;2023-03-19T02:39:16;5.05;;;1.17;;
25155;SDS011;21913;52.456;13.634;2023-03-19T02:44:41;2.42;;;1.30;;
25155;SDS011;21913;52.456;13.634;2023-03-19T02:49:44;2.42;;;1.20;;
25155;SDS011;21913;52.456;13.634;2023-03-19T02:54:45;1.83;;;1.30;;
25155;SDS011;21913;52.456;13.634;2023-03-19T02:59:47;1.70;;;1.02;;
25155;SDS011;21913;52.456;13.634;2023-03-19T03:04:48;1.60;;;1.15;;
25155;SDS011;21913;52.456;13.634;2023-03-19T03:09:50;1.95;;;1.20;;
25155;SDS011;21913;52.456;13.634;2023-03-19T03:14:51;1.88;;;1.10;;
25155;SDS011;21913;52.456;13.634;2023-03-19T03:19:53;1.77;;;1.10;;
25155;SDS011;21913;52.456;13.634;2023-03-19T03:24:54;2.42;;;1.20;;
25155;SDS011;21913;52.456;13.634;2023-03-19T03:29:56;5.90;;;1.80;;
25155;SDS011;21913;52.456;13.634;2023-03-19T03:34:58;5.80;;;2.20;;
25155;SDS011;21913;52.456;13.634;2023-03-19T03:39:59;5.43;;;2.50;;
25155;SDS011;21913;52.456;13.634;2023-03-19T03:45:01;3.85;;;2.03;;
25155;SDS011;21913;52.456;13.634;2023-03-19T03:50:03;4.45;;;2.30;;
25155;SDS011;21913;52.456;13.634;2023-03-19T03:55:05;6.40;;;2.40;;
25155;SDS011;21913;52.456;13.634;2023-03-19T04:00:07;5.00;;;2.42;;
25155;SDS011;21913;52.456;13.634;2023-03-19T04:05:16;7.65;;;2.13;;
25155;SDS011;21913;52.456;13.634;2023-03-19T04:10:18;4.25;;;1.80;;
25155;SDS011;21913;52.456;13.634;2023-03-19T04:15:20;5.72;;;2.42;;
25155;SDS011;21913;52.456;13.634;2023-03-19T04:20:24;4.88;;;2.25;;
25155;SDS011;21913;52.456;13.634;2023-03-19T04:25:25;3.83;;;2.08;;
25155;SDS011;21913;52.456;13.634;2023-03-19T04:30:27;5.32;;;2.03;;
25155;SDS011;21913;52.456;13.634;2023-03-19T04:35:29;4.25;;;2.03;;
25155;SDS011;21913;52.456;13.634;2023-03-19T04:40:32;4.93;;;2.00;;
25155;SDS011;21913;52.456;13.634;2023-03-19T04:45:33;3.17;;;1.90;;
25155;SDS011;21913;52.456;13.634;2023-03-19T04:50:35;3.05;;;1.70;;
25155;SDS011;21913;52.456;13.634;2023-03-19T04:55:38;3.13;;;1.70;;
25155;SDS011;21913;52.456;13.634;2023-03-19T05:00:49;6.55;;;2.13;;
25155;SDS011;21913;52.456;13.634;2023-03-19T05:05:55;4.50;;;1.95;;
25155;SDS011;21913;52.456;13.634;2023-03-19T05:10:58;2.95;;;1.80;;
25155;SDS011;21913;52.456;13.634;2023-03-19T05:16:05;2.72;;;1.80;;
25155;SDS011;21913;52.456;13.634;2023-03-19T05:21:11;4.03;;;1.92;;
25155;SDS011;21913;52.456;13.634;2023-03-19T05:26:14;3.90;;;2.05;;
25155;SDS011;21913;52.456;13.634;2023-03-19T05:31:44;3.23;;;1.70;;
25155;SDS011;21913;52.456;13.634;2023-03-19T05:36:46;2.80;;;1.80;;
25155;SDS011;21913;52.456;13.634;2023-03-19T05:41:51;5.82;;;2.17;;
25155;SDS011;21913;52.456;13.634;2023-03-19T05:46:57;6.00;;;1.73;;
25155;SDS011;21913;52.456;13.634;2023-03-19T05:52:03;4.65;;;2.00;;
25155;SDS011;21913;52.456;13.634;2023-03-19T05:57:08;5.32;;;1.88;;
25155;SDS011;21913;52.456;13.634;2023-03-19T06:02:16;4.25;;;1.77;;
25155;SDS011;21913;52.456;13.634;2023-03-19T06:07:18;2.95;;;1.73;;
25155;SDS011;21913;52.456;13.634;2023-03-19T06:12:20;3.75;;;1.75;;
25155;SDS011;21913;52.456;13.634;2023-03-19T06:17:44;2.80;;;1.70;;
25155;SDS011;21913;52.456;13.634;2023-03-19T06:22:49;3.22;;;1.70;;
25155;SDS011;21913;52.456;13.634;2023-03-19T06:27:52;3.35;;;1.77;;
25155;SDS011;21913;52.456;13.634;2023-03-19T06:33:00;3.22;;;1.70;;
25155;SDS011;21913;52.456;13.634;2023-03-19T06:38:04;6.03;;;1.77;;
25155;SDS011;21913;52.456;13.634;2023-03-19T06:43:05;4.30;;;1.80;;
25155;SDS011;21913;52.456;13.634;2023-03-19T06:48:07;2.47;;;1.52;;
25155;SDS011;21913;52.456;13.634;2023-03-19T06:53:08;3.08;;;1.55;;
25155;SDS011;21913;52.456;13.634;2023-03-19T06:58:10;2.25;;;1.48;;
25155;SDS011;21913;52.456;13.634;2023-03-19T07:03:11;2.42;;;1.45;;
25155;SDS011;21913;52.456;13.634;2023-03-19T07:08:13;2.70;;;1.52;;
25155;SDS011;21913;52.456;13.634;2023-03-19T07:13:14;2.35;;;1.58;;
25155;SDS011;21913;52.456;13.634;2023-03-19T07:18:16;2.17;;;1.60;;
25155;SDS011;21913;52.456;13.634;2023-03-19T07:23:17;2.95;;;1.67;;
25155;SDS011;21913;52.456;13.634;2023-03-19T07:28:19;2.97;;;1.60;;
25155;SDS011;21913;52.456;13.634;2023-03-19T07:33:21;2.97;;;1.60;;
25155;SDS011;21913;52.456;13.634;2023-03-19T07:38:22;2.10;;;1.40;;
25155;SDS011;21913;52.456;13.634;2023-03-19T07:43:24;2.03;;;1.40;;
25155;SDS011;21913;52.456;13.634;2023-03-19T07:48:26;2.50;;;1.38;;
25155;SDS011;21913;52.456;13.634;2023-03-19T07:53:27;3.67;;;1.50;;
25155;SDS011;21913;52.456;13.634;2023-03-19T07:58:29;3.03;;;1.50;;
25155;SDS011;21913;52.456;13.634;2023-03-19T08:03:30;2.08;;;1.40;;
25155;SDS011;21913;52.456;13.634;2023-03-19T08:08:32;2.63;;;1.38;;
25155;SDS011;21913;52.456;13.634;2023-03-19T08:13:33;2.08;;;1.20;;
25155;SDS011;21913;52.456;13.634;2023-03-19T08:18:35;1.67;;;1.27;;
25155;SDS011;21913;52.456;13.634;2023-03-19T08:23:36;2.53;;;1.45;;
25155;SDS011;21913;52.456;13.634;2023-03-19T08:28:38;2.38;;;1.42;;
25155;SDS011;21913;52.456;13.634;2023-03-19T08:33:40;2.40;;;1.50;;
25155;SDS011;21913;52.456;13.634;2023-03-19T08:38:42;2.50;;;1.25;;
25155;SDS011;21913;52.456;13.634;2023-03-19T08:43:43;2.25;;;1.48;;
25155;SDS011;21913;52.456;13.634;2023-03-19T08:48:45;3.20;;;1.35;;
25155;SDS011;21913;52.456;13.634;2023-03-19T08:53:46;2.45;;;1.50;;
25155;SDS011;21913;52.456;13.634;2023-03-19T08:58:48;2.45;;;1.52;;
25155;SDS011;21913;52.456;13.634;2023-03-19T09:03:50;2.35;;;1.50;;
25155;SDS011;21913;52.456;13.634;2023-03-19T09:08:52;2.28;;;1.40;;
25155;SDS011;21913;52.456;13.634;2023-03-19T09:13:53;2.10;;;1.23;;
25155;SDS011;21913;52.456;13.634;2023-03-19T09:18:55;2.47;;;1.45;;
25155;SDS011;21913;52.456;13.634;2023-03-19T09:23:59;3.53;;;1.60;;
25155;SDS011;21913;52.456;13.634;2023-03-19T09:29:01;2.80;;;1.45;;
25155;SDS011;21913;52.456;13.634;2023-03-19T09:34:02;1.70;;;1.23;;
25155;SDS011;21913;52.456;13.634;2023-03-19T09:39:05;1.90;;;1.40;;
25155;SDS011;21913;52.456;13.634;2023-03-19T09:44:12;2.10;;;1.40;;
25155;SDS011;21913;52.456;13.634;2023-03-19T09:54:30;2.97;;;1.50;;
25155;SDS011;21913;52.456;13.634;2023-03-19T09:59:34;2.65;;;1.40;;
25155;SDS011;21913;52.456;13.634;2023-03-19T10:04:44;3.15;;;1.45;;
25155;SDS011;21913;52.456;13.634;2023-03-19T10:25:23;2.33;;;1.50;;
25155;SDS011;21913;52.456;13.634;2023-03-19T10:30:27;1.70;;;1.20;;
25155;SDS011;21913;52.456;13.634;2023-03-19T10:35:36;2.35;;;1.48;;
25155;SDS011;21913;52.456;13.634;2023-03-19T10:40:43;1.70;;;1.20;;
25155;SDS011;21913;52.456;13.634;2023-03-19T10:45:56;1.77;;;1.35;;
25155;SDS011;21913;52.456;13.634;2023-03-19T10:50:58;2.22;;;1.25;;
25155;SDS011;21913;52.456;13.634;2023-03-19T10:56:06;2.08;;;1.33;;
25155;SDS011;21913;52.456;13.634;2023-03-19T11:01:18;2.17;;;1.45;;
25155;SDS011;21913;52.456;13.634;2023-03-19T11:06:25;1.90;;;1.20;;
25155;SDS011;21913;52.456;13.634;2023-03-19T11:27:08;2.65;;;1.40;;
25155;SDS011;21913;52.456;13.634;2023-03-19T11:43:02;2.35;;;1.40;;
25155;SDS011;21913;52.456;13.634;2023-03-19T12:04:18;1.73;;;1.20;;
25155;SDS011;21913;52.456;13.634;2023-03-19T12:09:44;1.60;;;1.17;;
25155;SDS011;21913;52.456;13.634;2023-03-19T12:15:15;1.77;;;1.20;;
25155;SDS011;21913;52.456;13.634;2023-03-19T12:20:43;1.90;;;1.20;;
25155;SDS011;21913;52.456;13.634;2023-03-19T12:25:57;1.48;;;0.95;;
25155;SDS011;21913;52.456;13.634;2023-03-19T12:31:44;2.08;;;1.17;;
25155;SDS011;21913;52.456;13.634;2023-03-19T12:36:38;1.88;;;1.20;;
25155;SDS011;21913;52.456;13.634;2023-03-19T12:41:55;1.60;;;1.15;;
25155;SDS011;21913;52.456;13.634;2023-03-19T12:52:26;1.55;;;1.20;;
25155;SDS011;21913;52.456;13.634;2023-03-19T12:57:45;1.88;;;1.27;;
25155;SDS011;21913;52.456;13.634;2023-03-19T13:08:18;1.63;;;1.20;;
25155;SDS011;21913;52.456;13.634;2023-03-19T13:29:21;1.52;;;1.08;;
25155;SDS011;21913;52.456;13.634;2023-03-19T13:34:25;2.33;;;1.30;;
25155;SDS011;21913;52.456;13.634;2023-03-19T13:39:30;1.42;;;1.10;;
25155;SDS011;21913;52.456;13.634;2023-03-19T13:44:35;1.48;;;1.10;;
25155;SDS011;21913;52.456;13.634;2023-03-19T13:50:00;1.90;;;1.20;;
25155;SDS011;21913;52.456;13.634;2023-03-19T13:55:18;2.08;;;1.20;;
25155;SDS011;21913;52.456;13.634;2023-03-19T14:05:43;1.75;;;0.98;;
25155;SDS011;21913;52.456;13.634;2023-03-19T14:10:48;2.45;;;1.27;;
25155;SDS011;21913;52.456;13.634;2023-03-19T14:15:52;1.52;;;1.02;;
25155;SDS011;21913;52.456;13.634;2023-03-19T14:21:04;1.85;;;1.20;;
25155;SDS011;21913;52.456;13.634;2023-03-19T14:31:32;1.58;;;1.20;;
25155;SDS011;21913;52.456;13.634;2023-03-19T14:36:53;1.17;;;0.93;;
25155;SDS011;21913;52.456;13.634;2023-03-19T14:52:34;3.92;;;1.05;;
25155;SDS011;21913;52.456;13.634;2023-03-19T14:57:43;2.00;;;1.02;;
25155;SDS011;21913;52.456;13.634;2023-03-19T15:02:48;1.70;;;1.10;;
25155;SDS011;21913;52.456;13.634;2023-03-19T15:07:53;2.53;;;1.10;;
25155;SDS011;21913;52.456;13.634;2023-03-19T15:18:20;1.55;;;1.10;;
25155;SDS011;21913;52.456;13.634;2023-03-19T15:23:24;2.28;;;1.00;;
25155;SDS011;21913;52.456;13.634;2023-03-19T15:28:29;1.35;;;1.00;;
25155;SDS011;21913;52.456;13.634;2023-03-19T15:33:34;1.48;;;1.10;;
25155;SDS011;21913;52.456;13.634;2023-03-19T15:39:04;2.13;;;1.20;;
25155;SDS011;21913;52.456;13.634;2023-03-19T15:44:06;1.50;;;1.10;;
25155;SDS011;21913;52.456;13.634;2023-03-19T15:54:21;1.95;;;1.00;;
25155;SDS011;21913;52.456;13.634;2023-03-19T15:59:23;1.83;;;1.10;;
25155;SDS011;21913;52.456;13.634;2023-03-19T16:04:29;2.53;;;1.20;;
25155;SDS011;21913;52.456;13.634;2023-03-19T16:09:32;1.48;;;1.02;;
25155;SDS011;21913;52.456;13.634;2023-03-19T16:14:39;2.55;;;1.15;;
25155;SDS011;21913;52.456;13.634;2023-03-19T16:24:50;1.20;;;1.00;;
25155;SDS011;21913;52.456;13.634;2023-03-19T16:29:56;1.60;;;1.00;;
25155;SDS011;21913;52.456;13.634;2023-03-19T16:50:15;1.50;;;1.10;;
25155;SDS011;21913;52.456;13.634;2023-03-19T17:00:27;1.57;;;1.10;;
25155;SDS011;21913;52.456;13.634;2023-03-19T17:05:32;1.40;;;1.00;;
25155;SDS011;21913;52.456;13.634;2023-03-19T17:10:34;1.63;;;0.90;;
25155;SDS011;21913;52.456;13.634;2023-03-19T17:15:37;1.30;;;1.10;;
25155;SDS011;21913;52.456;13.634;2023-03-19T17:20:47;1.88;;;1.15;;
25155;SDS011;21913;52.456;13.634;2023-03-19T17:26:13;1.50;;;1.00;;
25155;SDS011;21913;52.456;13.634;2023-03-19T17:31:28;1.30;;;0.95;;
25155;SDS011;21913;52.456;13.634;2023-03-19T17:36:31;2.03;;;1.30;;
25155;SDS011;21913;52.456;13.634;2023-03-19T17:41:33;1.33;;;1.10;;
25155;SDS011;21913;52.456;13.634;2023-03-19T17:46:51;1.50;;;0.98;;
25155;SDS011;21913;52.456;13.634;2023-03-19T17:51:54;1.27;;;1.00;;
25155;SDS011;21913;52.456;13.634;2023-03-19T17:56:56;1.15;;;1.00;;
25155;SDS011;21913;52.456;13.634;2023-03-19T18:01:57;2.20;;;1.20;;
25155;SDS011;21913;52.456;13.634;2023-03-19T18:06:59;1.40;;;1.20;;
25155;SDS011;21913;52.456;13.634;2023-03-19T18:12:00;1.45;;;1.02;;
25155;SDS011;21913;52.456;13.634;2023-03-19T18:17:02;1.45;;;1.10;;
25155;SDS011;21913;52.456;13.634;2023-03-19T18:22:14;1.95;;;1.10;;
25155;SDS011;21913;52.456;13.634;2023-03-19T18:27:17;1.45;;;1.10;;
25155;SDS011;21913;52.456;13.634;2023-03-19T18:32:24;1.75;;;1.00;;
25155;SDS011;21913;52.456;13.634;2023-03-19T18:37:29;1.90;;;1.10;;
25155;SDS011;21913;52.456;13.634;2023-03-19T18:42:32;1.40;;;1.10;;
25155;SDS011;21913;52.456;13.634;2023-03-19T18:47:34;1.70;;;1.20;;
25155;SDS011;21913;52.456;13.634;2023-03-19T18:52:36;1.92;;;1.17;;
25155;SDS011;21913;52.456;13.634;2023-03-19T18:57:48;1.48;;;1.10;;
25155;SDS011;21913;52.456;13.634;2023-03-19T19:02:54;1.80;;;1.30;;
25155;SDS011;21913;52.456;13.634;2023-03-19T19:07:56;2.15;;;1.20;;
25155;SDS011;21913;52.456;13.634;2023-03-19T19:13:00;1.98;;;1.30;;
25155;SDS011;21913;52.456;13.634;2023-03-19T19:18:18;1.90;;;1.25;;
25155;SDS011;21913;52.456;13.634;2023-03-19T19:23:24;1.50;;;1.15;;
25155;SDS011;21913;52.456;13.634;2023-03-19T19:28:30;1.80;;;1.27;;
25155;SDS011;21913;52.456;13.634;2023-03-19T19:33:36;2.03;;;1.30;;
25155;SDS011;21913;52.456;13.634;2023-03-19T19:38:37;1.70;;;1.30;;
25155;SDS011;21913;52.456;13.634;2023-03-19T19:43:39;1.90;;;1.40;;
25155;SDS011;21913;52.456;13.634;2023-03-19T19:48:42;2.08;;;1.40;;
25155;SDS011;21913;52.456;13.634;2023-03-19T19:53:44;2.42;;;1.40;;
25155;SDS011;21913;52.456;13.634;2023-03-19T19:58:45;1.73;;;1.20;;
25155;SDS011;21913;52.456;13.634;2023-03-19T20:03:49;2.20;;;1.20;;
25155;SDS011;21913;52.456;13.634;2023-03-19T20:08:51;1.45;;;1.10;;
25155;SDS011;21913;52.456;13.634;2023-03-19T20:13:53;1.58;;;1.17;;
25155;SDS011;21913;52.456;13.634;2023-03-19T20:18:55;2.05;;;1.40;;
25155;SDS011;21913;52.456;13.634;2023-03-19T20:23:57;1.75;;;1.30;;
25155;SDS011;21913;52.456;13.634;2023-03-19T20:28:58;1.60;;;1.20;;
25155;SDS011;21913;52.456;13.634;2023-03-19T20:34:00;1.83;;;1.25;;
25155;SDS011;21913;52.456;13.634;2023-03-19T20:39:01;2.45;;;1.30;;
25155;SDS011;21913;52.456;13.634;2023-03-19T20:44:03;2.45;;;1.30;;
25155;SDS011;21913;52.456;13.634;2023-03-19T20:49:07;2.10;;;1.50;;
25155;SDS011;21913;52.456;13.634;2023-03-19T20:54:14;2.22;;;1.20;;
25155;SDS011;21913;52.456;13.634;2023-03-19T20:59:15;2.20;;;1.40;;
25155;SDS011;21913;52.456;13.634;2023-03-19T21:04:17;2.05;;;1.20;;
25155;SDS011;21913;52.456;13.634;2023-03-19T21:09:19;1.42;;;1.17;;
25155;SDS011;21913;52.456;13.634;2023-03-19T21:14:21;2.30;;;1.50;;
25155;SDS011;21913;52.456;13.634;2023-03-19T21:19:22;1.73;;;1.20;;
25155;SDS011;21913;52.456;13.634;2023-03-19T21:24:24;1.95;;;1.40;;
25155;SDS011;21913;52.456;13.634;2023-03-19T21:29:28;1.83;;;1.40;;
25155;SDS011;21913;52.456;13.634;2023-03-19T21:34:32;1.98;;;1.40;;
25155;SDS011;21913;52.456;13.634;2023-03-19T21:39:33;2.40;;;1.60;;
25155;SDS011;21913;52.456;13.634;2023-03-19T21:44:34;2.65;;;1.80;;
25155;SDS011;21913;52.456;13.634;2023-03-19T21:49:36;3.05;;;1.98;;
25155;SDS011;21913;52.456;13.634;2023-03-19T21:54:38;2.50;;;1.65;;
25155;SDS011;21913;52.456;13.634;2023-03-19T21:59:40;5.35;;;1.70;;
25155;SDS011;21913;52.456;13.634;2023-03-19T22:04:43;3.10;;;1.73;;
25155;SDS011;21913;52.456;13.634;2023-03-19T22:09:45;2.97;;;1.95;;
25155;SDS011;21913;52.456;13.634;2023-03-19T22:14:46;2.63;;;1.85;;
25155;SDS011;21913;52.456;13.634;2023-03-19T22:19:48;2.90;;;2.03;;
25155;SDS011;21913;52.456;13.634;2023-03-19T22:24:49;3.85;;;2.30;;
25155;SDS011;21913;52.456;13.634;2023-03-19T22:29:51;2.70;;;1.92;;
25155;SDS011;21913;52.456;13.634;2023-03-19T22:34:52;3.17;;;2.20;;
25155;SDS011;21913;52.456;13.634;2023-03-19T22:39:53;2.92;;;2.25;;
25155;SDS011;21913;52.456;13.634;2023-03-19T22:44:55;4.20;;;2.20;;
25155;SDS011;21913;52.456;13.634;2023-03-19T22:49:57;2.97;;;2.15;;
25155;SDS011;21913;52.456;13.634;2023-03-19T22:54:59;3.08;;;2.13;;
25155;SDS011;21913;52.456;13.634;2023-03-19T23:00:00;3.05;;;2.28;;
25155;SDS011;21913;52.456;13.634;2023-03-19T23:05:09;3.47;;;2.30;;
25155;SDS011;21913;52.456;13.634;2023-03-19T23:10:25;4.18;;;2.70;;
25155;SDS011;21913;52.456;13.634;2023-03-19T23:15:28;4.00;;;2.63;;
25155;SDS011;21913;52.456;13.634;2023-03-19T23:20:30;4.10;;;2.70;;
25155;SDS011;21913;52.456;13.634;2023-03-19T23:25:32;3.85;;;2.53;;
25155;SDS011;21913;52.456;13.634;2023-03-19T23:30:34;4.28;;;2.80;;
25155;SDS011;21913;52.456;13.634;2023-03-19T23:35:35;4.13;;;2.72;;
25155;SDS011;21913;52.456;13.634;2023-03-19T23:40:38;3.38;;;2.55;;
25155;SDS011;21913;52.456;13.634;2023-03-19T23:45:41;5.43;;;2.95;;
25155;SDS011;21913;52.456;13.634;2023-03-19T23:50:44;4.53;;;2.70;;
25155;SDS011;21913;52.456;13.634;2023-03-19T23:56:11;4.75;;;3.10;;
